Time;durP1;ratioP1;P1;durP2;ratioP2;P2;SDS_P1;SDS_P2;PMS_P1;PMS_P2;Temp;Humidity;BMP_temperature;BMP_pressure;BME280_temperature;BME280_humidity;BME280_pressure;Samples;Min_cycle;Max_cycle;Signal;HPM_P1;HPM_P2
2023/01/24 00:01:25;;;;;;;4.03;3.63;;;6.70;99.90;;;6.45;70.69;95892.00;5093653;28;20937;-57
2023/01/24 00:03:53;;;;;;;4.07;3.50;;;6.60;99.90;;;6.41;71.13;95893.16;5091174;28;20543;-57
2023/01/24 00:06:21;;;;;;;9.57;3.67;;;6.60;99.90;;;6.39;71.14;95886.31;5094274;28;20454;-58
2023/01/24 00:08:48;;;;;;;3.47;3.17;;;6.60;99.90;;;6.35;71.36;95890.88;5087334;28;20457;-58
2023/01/24 00:11:15;;;;;;;4.63;3.60;;;6.60;99.90;;;6.36;71.36;95896.94;5094641;28;20505;-55
2023/01/24 00:13:43;;;;;;;4.70;4.30;;;6.60;99.90;;;6.33;71.66;95900.56;5089340;28;20478;-57
2023/01/24 00:16:13;;;;;;;3.73;3.10;;;6.50;99.90;;;6.31;71.53;95905.03;5095559;28;20438;-58
2023/01/24 00:18:40;;;;;;;3.27;3.03;;;6.50;99.90;;;6.28;71.08;95902.59;5093182;28;20470;-57
2023/01/24 00:21:12;;;;;;;6.20;3.10;;;6.50;99.90;;;6.27;71.60;95904.38;5099041;28;20446;-56
2023/01/24 00:23:39;;;;;;;5.73;3.83;;;6.50;99.90;;;6.30;71.29;95905.13;5088821;28;20462;-62
2023/01/24 00:26:06;;;;;;;3.30;3.00;;;6.50;99.90;;;6.31;71.65;95912.88;5095532;28;20493;-59
2023/01/24 00:28:34;;;;;;;3.97;3.20;;;6.50;99.90;;;6.33;71.55;95911.00;5089656;28;21056;-58
2023/01/24 00:31:01;;;;;;;5.73;3.50;;;6.50;99.90;;;6.34;71.43;95920.53;5092149;28;21002;-59
2023/01/24 00:33:29;;;;;;;3.80;3.50;;;6.60;99.90;;;6.35;71.19;95913.53;5089615;28;20473;-58
2023/01/24 00:35:56;;;;;;;4.43;4.00;;;6.50;99.90;;;6.36;71.31;95915.22;5091648;28;20953;-57
2023/01/24 00:38:25;;;;;;;3.57;3.37;;;6.50;99.90;;;6.34;71.62;95920.53;5088690;28;20485;-55
2023/01/24 00:40:52;;;;;;;4.77;3.50;;;6.50;99.90;;;6.33;71.39;95918.84;5091390;28;20445;-57
2023/01/24 00:43:19;;;;;;;5.07;4.57;;;6.60;99.90;;;6.35;71.38;95922.25;5088079;28;20473;-58
2023/01/24 00:45:46;;;;;;;5.10;3.60;;;6.50;99.90;;;6.37;71.08;95922.97;5091670;28;20515;-58
2023/01/24 00:48:14;;;;;;;5.47;3.37;;;6.60;99.90;;;6.39;70.94;95918.50;5091934;28;20474;-57
2023/01/24 00:50:41;;;;;;;4.70;3.53;;;6.50;99.90;;;6.40;70.92;95914.13;5091360;28;20497;-55
2023/01/24 00:53:08;;;;;;;4.50;3.50;;;6.50;99.90;;;6.38;71.42;95924.69;5094591;28;21021;-57
2023/01/24 00:55:42;;;;;;;5.07;3.43;;;6.60;99.90;;;6.31;71.23;95925.94;5090885;28;20454;-55
2023/01/24 00:58:09;;;;;;;3.63;3.03;;;6.60;99.90;;;6.31;71.26;95915.50;5085205;28;20477;-55
2023/01/24 01:00:39;;;;;;;4.17;3.40;;;6.50;99.90;;;6.31;71.50;95918.09;5085612;28;20462;-58
2023/01/24 01:03:07;;;;;;;4.90;3.23;;;6.50;99.90;;;6.32;71.51;95932.00;5085368;28;20492;-58
2023/01/24 01:05:34;;;;;;;5.37;4.07;;;6.50;99.90;;;6.31;71.19;95919.88;5085092;28;20458;-58
2023/01/24 01:08:01;;;;;;;3.80;3.37;;;6.50;99.90;;;6.27;70.97;95925.28;5085180;28;20519;-57
2023/01/24 01:10:29;;;;;;;4.00;3.60;;;6.50;99.90;;;6.25;71.25;95928.91;5088195;28;20546;-57
2023/01/24 01:12:57;;;;;;;4.63;3.80;;;6.50;99.90;;;6.24;71.06;95932.44;5089746;28;20481;-57
2023/01/24 01:15:25;;;;;;;3.47;3.17;;;6.50;99.90;;;6.22;71.34;95922.06;5088587;28;20560;-58
2023/01/24 01:17:52;;;;;;;5.10;3.60;;;6.40;99.90;;;6.22;71.26;95927.31;5090367;28;20480;-55
2023/01/24 01:20:19;;;;;;;8.27;4.33;;;6.40;99.90;;;6.19;71.84;95926.63;5093033;28;20460;-56
2023/01/24 01:22:47;;;;;;;4.77;4.30;;;6.40;99.90;;;6.23;71.40;95933.38;5088649;28;20538;-59
2023/01/24 01:25:14;;;;;;;4.13;3.80;;;6.40;99.90;;;6.24;71.12;95935.06;5087877;28;20481;-55
2023/01/24 01:27:41;;;;;;;4.03;3.63;;;6.40;99.90;;;6.20;71.53;95933.56;5093902;28;20561;-57
2023/01/24 01:30:12;;;;;;;3.47;3.17;;;6.40;99.90;;;6.17;71.88;95936.34;5089069;28;20454;-59
2023/01/24 01:32:39;;;;;;;10.87;3.80;;;6.40;99.90;;;6.15;71.61;95930.34;5094036;28;20445;-56
2023/01/24 01:35:07;;;;;;;6.90;4.50;;;6.40;99.90;;;6.16;71.68;95926.81;5088814;28;20507;-55
2023/01/24 01:37:34;;;;;;;9.67;4.97;;;6.30;99.90;;;6.14;71.95;95926.06;5094531;28;20565;-59
2023/01/24 01:40:02;;;;;;;5.80;4.37;;;6.30;99.90;;;6.12;71.64;95933.13;5088155;28;20507;-57
2023/01/24 01:42:42;;;;;;;5.53;4.30;;;6.30;99.90;;;6.12;71.97;95931.38;5091392;28;20976;-57
2023/01/24 01:45:36;;;;;;;4.07;3.63;;;6.30;99.90;;;6.14;71.97;95926.06;5092410;28;20449;-57
2023/01/24 01:48:06;;;;;;;4.40;4.00;;;6.30;99.90;;;6.14;72.16;95928.69;5090590;28;20458;-58
2023/01/24 01:50:35;;;;;;;5.87;3.80;;;6.30;99.90;;;6.13;71.68;95927.00;5093029;28;20477;-58
2023/01/24 01:53:02;;;;;;;3.30;3.10;;;6.30;99.90;;;6.10;72.06;95920.16;5089101;28;20524;-57
2023/01/24 01:55:32;;;;;;;4.83;3.47;;;6.30;99.90;;;6.06;72.32;95924.72;5090025;28;20857;-57
2023/01/24 01:57:59;;;;;;;5.63;3.60;;;6.30;99.90;;;6.04;72.30;95929.19;5089638;28;20473;-57
2023/01/24 02:00:27;;;;;;;4.73;4.03;;;6.30;99.90;;;6.03;71.81;95927.50;5095835;28;20457;-57
2023/01/24 02:03:37;;;;;;;5.00;4.00;;;6.20;99.90;;;6.03;72.42;95922.28;5093357;28;20485;-57
2023/01/24 02:05:48;;;;;;;7.53;3.33;;;6.20;99.90;;;6.03;71.84;95924.06;5094127;28;20441;-55
2023/01/24 02:08:17;;;;;;;7.80;3.20;;;6.20;99.90;;;6.05;71.83;95917.81;5091017;28;20493;-55
2023/01/24 02:13:31;;;;;;;5.97;3.03;;;6.20;99.90;;;6.01;72.05;95921.53;5093751;28;20850;-58
2023/01/24 02:16:03;;;;;;;4.00;3.60;;;6.20;99.90;;;5.99;71.80;95904.25;5090321;28;20454;-54
2023/01/24 02:18:32;;;;;;;3.20;2.90;;;6.20;99.90;;;5.97;71.97;95908.75;5097995;28;20496;-59
2023/01/24 02:20:59;;;;;;;4.47;3.67;;;6.20;99.90;;;5.96;72.12;95907.84;5096348;28;20468;-57
2023/01/24 02:23:32;;;;;;;4.60;3.37;;;6.20;99.90;;;5.97;72.00;95909.56;5097895;28;20468;-59
2023/01/24 02:26:09;;;;;;;3.87;3.40;;;6.20;99.90;;;5.96;71.75;95905.22;5091769;28;21098;-55
2023/01/24 02:28:36;;;;;;;3.83;3.47;;;6.20;99.90;;;5.95;71.71;95907.94;5091631;28;20496;-58
2023/01/24 02:31:04;;;;;;;4.50;3.30;;;6.10;99.90;;;5.95;71.50;95914.00;5097220;28;21084;-57
2023/01/24 02:33:31;;;;;;;3.97;3.57;;;6.10;99.90;;;5.94;71.63;95912.31;5093280;28;20473;-57
2023/01/24 02:36:18;;;;;;;3.67;3.03;;;6.10;99.90;;;5.95;71.39;95903.56;5095050;28;20773;-59
2023/01/24 02:38:54;;;;;;;3.10;2.83;;;6.10;99.90;;;5.93;71.66;95924.53;5088023;28;20542;-60
2023/01/24 02:41:26;;;;;;;5.00;3.70;;;6.10;99.90;;;5.92;71.52;95914.19;5087341;28;20545;-55
2023/01/24 02:43:53;;;;;;;4.90;3.43;;;6.10;99.90;;;5.90;71.72;95919.50;5092556;28;21063;-58
2023/01/24 02:46:21;;;;;;;5.30;3.63;;;6.10;99.90;;;5.89;72.24;95919.56;5095351;28;20453;-55
2023/01/24 02:48:51;;;;;;;5.97;3.40;;;6.10;99.90;;;5.89;72.00;95914.34;5092790;28;20896;-56
2023/01/24 02:54:03;;;;;;;3.50;3.00;;;6.10;99.90;;;5.86;72.09;95914.53;5093167;28;20452;-56
2023/01/24 02:59:16;;;;;;;3.83;3.53;;;6.10;99.90;;;5.82;72.15;95919.06;5093510;28;20465;-59
2023/01/24 03:01:44;;;;;;;3.40;3.10;;;6.00;99.90;;;5.81;72.05;95914.78;5096891;28;20976;-58
2023/01/24 03:04:13;;;;;;;3.63;2.73;;;6.00;99.90;;;5.81;71.96;95912.16;5091869;28;20548;-55
2023/01/24 03:06:40;;;;;;;4.33;2.97;;;6.00;99.90;;;5.83;72.00;95910.31;5096862;28;20452;-58
2023/01/24 03:09:18;;;;;;;4.70;3.33;;;6.00;99.90;;;5.84;71.59;95905.91;5087888;28;20465;-58
2023/01/24 03:11:47;;;;;;;3.60;3.00;;;6.00;99.90;;;5.85;71.72;95912.81;5095158;28;20472;-56
2023/01/24 03:36:19;;;;;;;2.10;2.00;;;5.80;99.90;;;5.55;71.80;95911.81;5092044;28;20418;-57
2023/01/24 03:41:28;;;;;;;2.77;2.57;;;5.80;99.90;;;5.53;72.04;95912.81;5075471;28;20527;-55
2023/01/24 03:43:56;;;;;;;2.57;2.47;;;5.70;99.90;;;5.55;72.16;95909.22;5096413;28;20800;-54
2023/01/24 03:46:23;;;;;;;2.90;2.70;;;5.70;99.90;;;5.57;71.72;95909.94;5090542;28;20461;-58
2023/01/24 03:48:51;;;;;;;2.63;2.53;;;5.80;99.90;;;5.59;71.93;95909.03;5096899;28;20820;-56
2023/01/24 03:54:02;;;;;;;3.80;3.53;;;5.80;99.90;;;5.62;72.13;95901.88;5091444;28;20476;-59
2023/01/24 03:56:30;;;;;;;2.77;2.60;;;5.80;99.90;;;5.64;72.27;95909.63;5092566;28;20515;-60
2023/01/24 03:58:58;;;;;;;3.20;3.00;;;5.80;99.90;;;5.68;71.68;95909.38;5093194;28;21159;-58
2023/01/24 04:01:26;;;;;;;7.13;3.47;;;5.90;99.90;;;5.67;71.59;95894.66;5089869;28;20837;-55
2023/01/24 04:03:53;;;;;;;6.10;3.93;;;5.80;99.90;;;5.68;71.70;95901.53;5089081;28;20527;-58
2023/01/24 04:06:20;;;;;;;4.33;3.80;;;5.90;99.90;;;5.66;71.73;95892.97;5092654;28;20481;-58
2023/01/24 04:08:47;;;;;;;3.60;3.30;;;5.90;99.90;;;5.62;71.35;95886.22;5090023;28;21111;-55
2023/01/24 04:11:15;;;;;;;6.93;3.97;;;5.90;99.90;;;5.61;71.64;95892.38;5089724;28;21044;-55
2023/01/24 04:13:42;;;;;;;4.57;4.03;;;5.80;99.90;;;5.62;71.24;95890.59;5088219;28;20466;-57
2023/01/24 04:16:12;;;;;;;5.93;4.30;;;5.80;99.90;;;5.62;71.89;95896.66;5091765;28;20450;-56
2023/01/24 04:18:39;;;;;;;3.50;3.23;;;5.80;99.90;;;5.65;71.40;95890.44;5089244;28;20501;-55
2023/01/24 04:21:06;;;;;;;5.20;4.10;;;5.80;99.90;;;5.63;71.10;95898.34;5096493;28;20506;-58
2023/01/24 04:23:33;;;;;;;4.23;3.83;;;5.80;99.90;;;5.61;71.02;95895.00;5096253;28;20488;-56
2023/01/24 04:26:01;;;;;;;4.60;4.20;;;5.80;99.90;;;5.61;71.47;95895.00;5091667;28;20450;-56
2023/01/24 04:28:28;;;;;;;3.97;3.47;;;5.80;99.90;;;5.58;71.23;95887.34;5090785;28;20894;-55
2023/01/24 04:30:59;;;;;;;4.60;3.60;;;5.80;99.90;;;5.54;71.66;95886.63;5091380;28;20453;-57
2023/01/24 04:33:28;;;;;;;5.97;3.47;;;5.80;99.90;;;5.55;71.41;95887.50;5094089;28;20978;-57
2023/01/24 04:35:58;;;;;;;9.33;3.50;;;5.70;99.90;;;5.55;71.13;95890.09;5092418;28;20461;-56
2023/01/24 04:38:25;;;;;;;3.13;2.87;;;5.80;99.90;;;5.53;71.49;95894.56;5085775;28;20819;-58
2023/01/24 04:40:59;;;;;;;2.70;2.50;;;5.70;99.90;;;5.49;70.93;95900.88;5085483;28;20473;-58
2023/01/24 04:43:26;;;;;;;6.83;3.40;;;5.70;99.90;;;5.43;71.63;95906.44;5090216;28;20497;-58
2023/01/24 04:45:57;;;;;;;12.20;8.07;;;5.70;99.90;;;5.37;71.28;95898.00;5093188;28;20453;-59
2023/01/24 04:48:24;;;;;;;7.33;3.93;;;5.60;99.90;;;5.36;71.63;95900.69;5089885;28;20484;-58
2023/01/24 04:50:53;;;;;;;6.03;4.30;;;5.60;99.90;;;5.36;71.83;95906.75;5094494;28;20452;-59
2023/01/24 04:53:20;;;;;;;5.40;4.47;;;5.60;99.90;;;5.34;71.42;95892.09;5091560;28;20485;-59
2023/01/24 04:55:48;;;;;;;38.70;20.13;;;5.60;99.90;;;5.31;71.52;95903.53;5094380;28;20456;-57
2023/01/24 04:58:15;;;;;;;6.90;5.47;;;5.50;99.90;;;5.28;71.97;95910.69;5090492;28;20469;-56
2023/01/24 05:00:42;;;;;;;13.47;6.23;;;5.50;99.90;;;5.24;72.03;95912.63;5094058;28;20480;-59
2023/01/24 05:03:10;;;;;;;3.40;2.30;;;5.50;99.90;;;5.19;72.01;95904.22;5086609;28;20473;-57
2023/01/24 05:05:37;;;;;;;3.10;2.80;;;5.50;99.90;;;5.18;71.89;95912.94;5090199;28;20891;-56
2023/01/24 05:08:06;;;;;;;2.33;2.13;;;5.40;99.90;;;5.16;72.36;95920.84;5092072;28;20481;-56
2023/01/24 05:10:33;;;;;;;2.70;2.50;;;5.40;99.90;;;5.13;73.29;95912.38;5094230;28;20962;-56
2023/01/24 05:13:00;;;;;;;2.33;2.13;;;5.40;99.90;;;5.11;72.32;95914.19;5089714;28;20492;-56
2023/01/24 05:15:28;;;;;;;1.97;1.87;;;5.40;99.90;;;5.10;72.52;95928.16;5090127;28;21409;-57
2023/01/24 05:17:55;;;;;;;3.60;2.30;;;5.30;99.90;;;5.11;72.76;95922.00;5088075;28;20525;-54
2023/01/24 05:20:22;;;;;;;2.60;2.40;;;5.30;99.90;;;5.13;72.34;95926.22;5092346;28;20796;-57
2023/01/24 05:22:50;;;;;;;2.07;1.97;;;5.40;99.90;;;5.14;71.57;95942.72;5090950;28;20469;-58
2023/01/24 05:25:18;;;;;;;2.70;2.33;;;5.30;99.90;;;5.09;71.89;95942.94;5088706;28;20551;-58
2023/01/24 05:27:46;;;;;;;21.13;3.20;;;5.30;99.90;;;5.08;71.92;95953.47;5087318;28;21308;-59
2023/01/24 05:30:14;;;;;;;2.30;2.20;;;5.30;99.90;;;5.07;71.87;95962.22;5087970;28;20464;-58
2023/01/24 05:32:41;;;;;;;3.00;1.70;;;5.30;99.90;;;5.05;72.03;95969.25;5087835;28;20516;-57
2023/01/24 05:35:09;;;;;;;2.70;2.07;;;5.30;99.90;;;5.00;71.86;95967.75;5097318;28;20453;-59
2023/01/24 05:37:38;;;;;;;1.73;1.63;;;5.30;99.90;;;4.97;72.16;95967.06;5095943;28;20452;-56
2023/01/24 05:40:07;;;;;;;2.40;2.20;;;5.30;99.90;;;4.95;72.30;95966.28;5088493;28;21021;-58
2023/01/24 05:42:35;;;;;;;5.53;2.40;;;5.20;99.90;;;4.96;72.28;95958.41;5092213;28;20450;-57
2023/01/24 05:45:03;;;;;;;2.80;1.97;;;5.20;99.90;;;4.99;71.96;95954.81;5091125;28;20461;-55
2023/01/24 05:47:30;;;;;;;2.97;2.70;;;5.30;99.90;;;5.02;72.32;95967.69;5097064;28;20446;-58
2023/01/24 05:49:57;;;;;;;4.33;2.67;;;5.30;99.90;;;5.02;72.12;95971.13;5092115;28;20457;-57
2023/01/24 05:52:24;;;;;;;2.70;2.50;;;5.30;99.90;;;5.01;71.91;95969.41;5096293;28;20580;-56
2023/01/24 05:54:52;;;;;;;3.60;3.10;;;5.30;99.90;;;5.00;72.33;95982.53;5095677;28;20449;-57
2023/01/24 05:57:19;;;;;;;3.53;2.70;;;5.30;99.90;;;4.97;71.89;95977.47;5097358;28;20452;-57
2023/01/24 05:59:48;;;;;;;5.47;3.53;;;5.20;99.90;;;4.94;72.24;95986.31;5093014;28;20472;-55
2023/01/24 06:02:16;;;;;;;5.87;4.30;;;5.20;99.90;;;4.95;72.33;95990.59;5097049;28;20460;-59
2023/01/24 06:04:44;;;;;;;5.80;3.63;;;5.20;99.90;;;4.97;72.13;95994.00;5093170;28;21183;-58
2023/01/24 06:07:11;;;;;;;4.00;3.30;;;5.20;99.90;;;4.99;72.20;95993.91;5096471;28;20460;-55
2023/01/24 06:09:38;;;;;;;5.13;4.20;;;5.20;99.90;;;4.99;71.60;95999.94;5095929;28;20998;-58
2023/01/24 06:12:06;;;;;;;5.93;3.30;;;5.30;99.90;;;5.00;70.77;95993.84;5096873;28;20503;-56
2023/01/24 06:14:33;;;;;;;3.03;2.80;;;5.20;99.90;;;5.02;70.03;95999.81;5092907;28;21072;-59
2023/01/24 06:17:02;;;;;;;5.63;3.77;;;5.20;99.90;;;5.04;69.97;95999.72;5096744;28;20903;-58
2023/01/24 06:19:30;;;;;;;3.43;2.93;;;5.20;99.90;;;5.05;69.80;96003.16;5092815;28;20523;-57
2023/01/24 06:22:00;;;;;;;3.00;2.80;;;5.20;99.90;;;5.06;69.20;95997.03;5096767;28;20453;-58
2023/01/24 06:24:29;;;;;;;2.00;1.90;;;5.30;99.90;;;5.05;68.12;96001.41;5092657;28;20478;-56
2023/01/24 06:26:57;;;;;;;3.73;3.00;;;5.20;99.90;;;5.04;67.74;95999.72;5096292;28;20461;-56
2023/01/24 06:29:25;;;;;;;9.80;3.37;;;5.30;99.90;;;5.02;68.16;96002.41;5095429;28;21079;-58
2023/01/24 06:32:03;;;;;;;3.60;3.30;;;5.30;99.90;;;4.99;67.89;96005.16;5092696;28;20453;-55
2023/01/24 06:35:04;;;;;;;3.20;2.70;;;5.20;99.90;;;4.96;68.45;96017.53;5088199;28;20860;-59
2023/01/24 06:37:35;;;;;;;4.03;3.10;;;5.20;99.90;;;4.92;68.20;96022.03;5094550;28;20454;-57
2023/01/24 06:40:07;;;;;;;3.30;2.77;;;5.10;99.90;;;4.88;67.97;96030.94;5094450;28;20438;-58
2023/01/24 06:42:36;;;;;;;2.57;1.90;;;5.10;99.90;;;4.84;68.55;96029.41;5091959;28;20449;-56
2023/01/24 06:45:03;;;;;;;7.00;4.20;;;5.10;99.90;;;4.80;68.55;96028.72;5091726;28;20461;-57
2023/01/24 06:47:32;;;;;;;13.83;3.83;;;5.00;99.90;;;4.73;69.28;96031.69;5092395;28;20895;-60
2023/01/24 06:49:59;;;;;;;3.03;2.77;;;5.00;99.90;;;4.70;69.08;96032.69;5096233;28;20499;-57
2023/01/24 06:52:26;;;;;;;6.43;3.80;;;4.90;99.90;;;4.67;68.75;96033.66;5092678;28;20547;-57
2023/01/24 06:54:54;;;;;;;4.37;2.60;;;4.90;99.90;;;4.64;68.85;96041.63;5096943;28;20865;-58
2023/01/24 06:57:21;;;;;;;3.23;2.93;;;4.90;99.90;;;4.61;69.35;96044.38;5092020;28;20450;-56
2023/01/24 06:59:48;;;;;;;3.00;2.63;;;4.90;99.90;;;4.58;70.29;96039.31;5095118;28;20465;-60
2023/01/24 07:02:16;;;;;;;2.03;1.93;;;4.80;99.90;;;4.59;71.24;96041.03;5092848;28;20466;-58
2023/01/24 07:04:45;;;;;;;3.73;1.83;;;4.80;99.90;;;4.57;70.94;96044.59;5094837;28;20481;-59
2023/01/24 07:07:12;;;;;;;5.53;2.97;;;4.80;99.90;;;4.53;70.59;96051.75;5093001;28;20851;-56
2023/01/24 07:09:40;;;;;;;2.63;2.43;;;4.70;99.90;;;4.50;71.22;96046.69;5092186;28;20465;-57
2023/01/24 07:12:08;;;;;;;2.53;2.33;;;4.70;99.90;;;4.53;71.91;96049.13;5093072;28;20478;-59
2023/01/24 07:14:35;;;;;;;2.33;1.87;;;4.70;99.90;;;4.58;71.46;96059.34;5095023;28;20910;-55
2023/01/24 07:17:03;;;;;;;2.10;1.90;;;4.80;99.90;;;4.61;71.06;96054.81;5092621;28;20450;-57
2023/01/24 07:19:31;;;;;;;2.37;2.10;;;4.80;99.90;;;4.61;70.68;96053.97;5094536;28;20802;-59
2023/01/24 07:22:01;;;;;;;2.50;2.30;;;4.80;99.90;;;4.57;70.58;96055.91;5094853;28;20934;-58
2023/01/24 07:24:30;;;;;;;3.90;2.47;;;4.80;99.90;;;4.54;70.81;96058.66;5094446;28;20472;-59
2023/01/24 07:26:58;;;;;;;3.20;1.90;;;4.80;99.90;;;4.54;70.45;96056.03;5094581;28;20545;-57
2023/01/24 07:29:25;;;;;;;2.10;1.77;;;4.80;99.90;;;4.53;70.57;96064.75;5093323;28;20464;-58
2023/01/24 07:31:52;;;;;;;6.80;3.60;;;4.80;99.90;;;4.55;71.01;96054.28;5094422;28;20450;-57
2023/01/24 07:34:20;;;;;;;4.30;2.53;;;4.70;99.90;;;4.54;70.37;96065.59;5092405;28;20472;-56
2023/01/24 07:36:47;;;;;;;4.13;3.50;;;4.80;99.90;;;4.51;70.39;96068.34;5090970;28;20454;-57
2023/01/24 07:39:17;;;;;;;3.90;3.00;;;4.70;99.90;;;4.50;70.50;96070.13;5091845;28;20477;-59
2023/01/24 07:41:45;;;;;;;4.13;3.70;;;4.70;99.90;;;4.48;70.51;96067.59;5099751;28;20464;-57
2023/01/24 07:44:12;;;;;;;5.00;3.33;;;4.70;99.90;;;4.44;70.34;96075.63;5093652;28;21015;-57
2023/01/24 07:46:40;;;;;;;6.57;4.80;;;4.70;99.90;;;4.41;70.43;96076.59;5093880;28;20567;-58
2023/01/24 07:49:07;;;;;;;9.23;3.70;;;4.60;99.90;;;4.39;70.44;96075.84;5094266;28;20481;-56
2023/01/24 07:51:34;;;;;;;4.70;3.30;;;4.60;99.90;;;4.35;70.40;96083.88;5093362;28;20457;-57
2023/01/24 07:54:01;;;;;;;4.67;4.20;;;4.60;99.90;;;4.30;70.31;96079.72;5095549;27;21406;-58
2023/01/24 07:56:30;;;;;;;3.03;2.43;;;4.60;99.90;;;4.31;70.89;96088.38;5092434;28;20461;-58
2023/01/24 07:58:58;;;;;;;4.63;2.77;;;4.50;99.90;;;4.30;70.67;96092.72;5094711;28;20530;-57
2023/01/24 08:01:26;;;;;;;3.77;3.47;;;4.50;99.90;;;4.28;70.96;96094.56;5091779;28;20457;-60
2023/01/24 08:03:55;;;;;;;4.20;3.47;;;4.50;99.90;;;4.28;70.80;96094.56;5091864;28;20848;-56
2023/01/24 08:06:23;;;;;;;9.87;4.27;;;4.50;99.90;;;4.30;71.14;96092.72;5091568;28;20509;-57
2023/01/24 08:08:50;;;;;;;3.40;3.10;;;4.50;99.90;;;4.30;71.12;96103.16;5087222;28;20477;-57
2023/01/24 08:11:17;;;;;;;5.27;3.90;;;4.50;99.90;;;4.33;71.64;96090.91;5091988;28;20869;-56
2023/01/24 08:13:46;;;;;;;3.57;3.27;;;4.60;99.90;;;4.32;70.87;96095.25;5094981;28;20490;-57
2023/01/24 08:16:13;;;;;;;5.37;3.90;;;4.60;99.90;;;4.35;71.01;96107.31;5086449;28;20587;-56
2023/01/24 08:18:40;;;;;;;4.70;3.47;;;4.60;99.90;;;4.39;70.88;96106.25;5090862;28;20482;-59
2023/01/24 08:21:08;;;;;;;5.50;4.00;;;4.60;99.90;;;4.40;70.54;96100.13;5097203;28;20469;-59
2023/01/24 08:23:35;;;;;;;12.33;4.60;;;4.60;99.90;;;4.34;70.50;96106.47;5089546;28;20470;-56
2023/01/24 08:26:05;;;;;;;7.07;4.40;;;4.60;99.90;;;4.35;70.79;96099.50;5095219;28;20456;-59
2023/01/24 08:28:32;;;;;;;8.13;4.23;;;4.60;99.90;;;4.38;70.70;96104.56;5089730;28;20466;-59
2023/01/24 08:31:01;;;;;;;6.80;4.50;;;4.60;99.90;;;4.38;70.44;96099.34;5094143;28;20454;-59
2023/01/24 08:33:29;;;;;;;7.60;4.80;;;4.60;99.90;;;4.38;70.23;96105.41;5088982;28;20493;-59
2023/01/24 08:35:56;;;;;;;6.00;3.70;;;4.60;99.90;;;4.39;70.52;96103.66;5094044;28;20519;-57
2023/01/24 08:38:25;;;;;;;10.33;5.03;;;4.60;99.90;;;4.41;70.11;96109.63;5089636;28;20470;-57
2023/01/24 08:40:52;;;;;;;15.30;7.90;;;4.60;99.90;;;4.43;70.11;96102.56;5095240;28;20457;-56
2023/01/24 08:43:19;;;;;;;6.40;5.30;;;4.70;99.90;;;4.47;69.74;96104.97;5092280;28;20465;-55
2023/01/24 08:45:47;;;;;;;5.47;4.03;;;4.70;99.90;;;4.53;69.75;96105.63;5088816;28;20458;-59
2023/01/24 08:48:15;;;;;;;8.30;5.77;;;4.70;99.90;;;4.56;69.57;96101.09;5090649;28;20477;-57
2023/01/24 08:50:42;;;;;;;3.50;3.20;;;4.70;99.90;;;4.59;69.10;96100.94;5093514;28;20858;-56
2023/01/24 08:53:10;;;;;;;2.90;2.70;;;4.80;99.90;;;4.60;68.86;96094.84;5090440;28;21027;-59
2023/01/24 08:55:37;;;;;;;4.33;3.57;;;4.80;99.90;;;4.62;69.11;96103.41;5093090;28;20458;-60
2023/01/24 08:58:05;;;;;;;8.07;4.70;;;4.80;99.90;;;4.66;69.09;96096.28;5090365;28;20478;-56
2023/01/24 09:00:32;;;;;;;6.03;4.80;;;4.90;99.90;;;4.67;69.06;96095.38;5094123;28;20548;-59
2023/01/24 09:03:00;;;;;;;5.73;4.00;;;4.90;99.90;;;4.74;69.38;96104.59;5088504;28;20479;-59
2023/01/24 09:05:29;;;;;;;2.63;2.43;;;4.90;99.90;;;4.76;69.58;96105.34;5087841;28;20493;-58
2023/01/24 09:07:56;;;;;;;2.90;2.70;;;4.90;99.90;;;4.79;69.21;96101.78;5087633;28;20469;-55
2023/01/24 09:10:24;;;;;;;2.83;2.53;;;5.00;99.90;;;4.82;69.65;96104.22;5092827;28;20887;-58
2023/01/24 09:12:51;;;;;;;5.63;2.50;;;5.00;99.90;;;4.85;69.23;96101.47;5090204;28;20496;-59
2023/01/24 09:15:18;;;;;;;3.93;2.13;;;5.00;99.90;;;4.88;69.58;96103.94;5093437;28;20450;-60
2023/01/24 09:17:46;;;;;;;2.97;2.70;;;5.10;99.90;;;4.90;69.37;96103.84;5089935;28;20533;-59
2023/01/24 09:20:13;;;;;;;2.40;2.20;;;5.10;99.90;;;4.91;69.38;96095.97;5100400;28;20434;-62
2023/01/24 09:22:42;;;;;;;3.97;3.53;;;5.10;99.90;;;4.91;69.44;96109.00;5090542;28;20476;-59
2023/01/24 09:25:10;;;;;;;3.17;2.67;;;5.10;99.90;;;4.92;69.58;96104.63;5093307;28;20446;-57
2023/01/24 09:27:38;;;;;;;6.13;3.00;;;5.10;99.90;;;4.92;69.17;96105.44;5089418;28;20457;-60
2023/01/24 09:30:06;;;;;;;4.50;2.57;;;5.20;99.90;;;4.97;69.56;96102.63;5089850;28;20836;-58
2023/01/24 09:32:33;;;;;;;2.67;2.43;;;5.20;99.90;;;4.96;68.38;96104.41;5093921;28;20451;-57
2023/01/24 09:35:01;;;;;;;6.30;2.50;;;5.20;99.90;;;4.96;68.82;96100.94;5088019;28;21030;-58
2023/01/24 09:37:28;;;;;;;3.00;2.80;;;5.20;99.90;;;4.96;68.85;96096.56;5084984;28;20530;-58
2023/01/24 09:39:59;;;;;;;2.63;2.43;;;5.20;99.90;;;4.98;68.96;96094.72;5090896;28;20442;-57
2023/01/24 09:42:32;;;;;;;3.47;2.33;;;5.20;99.90;;;5.02;68.93;96098.03;5086132;28;20477;-57
2023/01/24 09:45:09;;;;;;;2.97;2.67;;;5.20;99.90;;;5.02;68.28;96101.50;5094160;28;20511;-59
2023/01/24 09:47:42;;;;;;;2.30;2.10;;;5.20;99.90;;;5.04;68.21;96098.81;5092088;28;21238;-59
2023/01/24 09:50:15;;;;;;;2.83;2.63;;;5.20;99.90;;;5.05;68.83;96099.63;5091608;28;20456;-59
2023/01/24 09:52:45;;;;;;;3.67;2.67;;;5.20;99.90;;;5.08;68.38;96094.28;5089544;28;20470;-58
2023/01/24 09:55:17;;;;;;;2.97;2.77;;;5.30;99.90;;;5.11;68.76;96100.19;5092968;28;20816;-56
2023/01/24 09:57:52;;;;;;;2.97;2.63;;;5.30;99.90;;;5.16;68.77;96089.53;5092352;28;20473;-58
2023/01/24 10:00:23;;;;;;;6.67;3.00;;;5.30;99.90;;;5.20;69.35;96097.13;5091171;28;20465;-56
2023/01/24 10:02:50;;;;;;;4.37;3.60;;;5.40;99.90;;;5.27;70.32;96089.84;5090932;28;20478;-57
2023/01/24 10:05:18;;;;;;;6.20;4.50;;;5.40;99.90;;;5.39;70.21;96088.34;5091154;28;20542;-56
2023/01/24 10:08:18;;;;;;;4.63;4.20;;;5.50;99.90;;;5.46;69.42;96086.28;5092808;28;20484;-58
2023/01/24 10:10:51;;;;;;;6.00;3.33;;;5.60;99.90;;;5.50;69.58;96087.81;5092988;28;21129;-55
2023/01/24 10:14:10;;;;;;;4.30;3.03;;;5.70;99.90;;;5.53;68.85;96075.47;5085073;28;20535;-56
2023/01/24 10:17:02;;;;;;;2.33;2.23;;;5.70;99.90;;;5.52;68.36;96072.94;5096880;28;20471;-57
2023/01/24 10:19:49;;;;;;;4.00;3.60;;;5.70;99.90;;;5.54;68.80;96063.25;5085431;28;20880;-60
2023/01/24 10:22:29;;;;;;;3.47;3.17;;;5.70;99.90;;;5.56;68.78;96069.22;5093670;28;20446;-59
2023/01/24 10:25:03;;;;;;;4.00;3.57;;;5.70;99.90;;;5.56;68.07;96070.09;5092799;28;20457;-57
2023/01/24 10:27:33;;;;;;;2.20;2.10;;;5.70;99.90;;;5.53;67.75;96065.03;5097156;28;20779;-57
2023/01/24 10:30:03;;;;;;;2.87;2.50;;;5.70;99.90;;;5.48;68.08;96066.19;5094396;28;20456;-56
2023/01/24 10:32:32;;;;;;;2.90;2.27;;;5.70;99.90;;;5.46;67.94;96070.63;5096055;28;20506;-57
2023/01/24 10:35:04;;;;;;;2.30;2.20;;;5.70;99.90;;;5.45;68.53;96061.13;5092206;28;20493;-55
2023/01/24 10:37:35;;;;;;;2.20;2.10;;;5.60;99.90;;;5.45;67.98;96056.72;5097835;28;21112;-57
2023/01/24 10:40:02;;;;;;;2.80;2.40;;;5.70;99.90;;;5.46;67.90;96055.00;5090618;28;20503;-57
2023/01/24 10:42:32;;;;;;;4.20;3.10;;;5.60;99.90;;;5.49;68.97;96053.06;5093257;28;20963;-57
2023/01/24 10:45:01;;;;;;;3.03;2.67;;;5.70;99.90;;;5.52;68.34;96057.28;5092432;28;20582;-59
2023/01/24 10:47:43;;;;;;;4.83;3.20;;;5.70;99.90;;;5.48;68.55;96056.56;5092821;28;20450;-56
2023/01/24 10:50:12;;;;;;;3.13;2.87;;;5.70;99.90;;;5.45;68.22;96056.72;5088028;28;20446;-58
2023/01/24 10:52:39;;;;;;;3.47;3.03;;;5.70;99.90;;;5.45;68.73;96056.72;5087760;28;20469;-59
2023/01/24 10:55:26;;;;;;;3.20;3.00;;;5.70;99.90;;;5.50;68.94;96054.75;5095522;28;20485;-58
2023/01/24 10:57:55;;;;;;;3.83;2.87;;;5.70;99.90;;;5.53;68.54;96051.13;5092310;28;20530;-57
2023/01/24 11:00:30;;;;;;;3.03;2.77;;;5.70;99.90;;;5.59;68.51;96058.63;5092638;28;20779;-56
2023/01/24 11:02:59;;;;;;;4.87;3.50;;;5.80;99.90;;;5.58;68.56;96043.91;5091192;28;20477;-59
2023/01/24 11:05:35;;;;;;;3.40;2.40;;;5.80;99.90;;;5.57;67.95;96043.03;5091639;28;20450;-58
2023/01/24 11:08:04;;;;;;;2.17;2.07;;;5.80;99.90;;;5.56;67.71;96037.91;5087619;28;20552;-59
2023/01/24 11:10:36;;;;;;;2.70;2.43;;;5.70;99.90;;;5.60;68.31;96039.44;5091091;28;20451;-57
2023/01/24 11:13:31;;;;;;;4.43;2.70;;;5.70;99.90;;;5.65;68.52;96042.66;5095770;28;20487;-57
2023/01/24 11:16:02;;;;;;;3.10;2.80;;;5.80;99.90;;;5.70;68.14;96032.81;5087664;28;20454;-57
2023/01/24 11:18:30;;;;;;;2.33;2.13;;;5.80;99.90;;;5.73;68.15;96035.28;5087328;28;20474;-57